createdAt,value
2023-01-18T00:00:28.239Z,88.15
2023-01-18T00:03:00.656Z,99.78
2023-01-18T00:05:34.146Z,94.95
2023-01-18T00:08:06.268Z,84.20
2023-01-18T00:10:38.619Z,93.05
2023-01-18T00:13:10.903Z,89.47
2023-01-18T00:15:42.857Z,89.45
2023-01-18T00:18:14.807Z,84.97
2023-01-18T00:20:46.765Z,74.70
2023-01-18T00:23:18.720Z,120.65
2023-01-18T00:25:50.653Z,120.78
2023-01-18T00:28:23.431Z,94.00
2023-01-18T00:30:55.693Z,115.78
2023-01-18T00:33:27.627Z,103.63
2023-01-18T00:36:02.496Z,135.32
2023-01-18T00:38:34.407Z,113.78
2023-01-18T00:41:06.396Z,107.53
2023-01-18T00:43:41.159Z,119.60
2023-01-18T00:46:19.115Z,120.85
2023-01-18T00:48:52.992Z,117.10
2023-01-18T00:51:25.826Z,98.95
2023-01-18T00:53:57.821Z,119.55
2023-01-18T00:56:29.717Z,161.00
2023-01-18T00:59:01.691Z,114.75
2023-01-18T01:01:33.714Z,120.65
2023-01-18T01:04:24.289Z,110.05
2023-01-18T01:06:56.262Z,96.40
2023-01-18T01:09:30.515Z,97.25
2023-01-18T01:12:20.993Z,116.38
2023-01-18T01:15:11.603Z,96.95
2023-01-18T01:18:02.261Z,93.10
2023-01-18T01:20:52.837Z,100.95
2023-01-18T01:23:43.578Z,87.43
2023-01-18T01:28:51.793Z,82.18
2023-01-18T01:31:23.690Z,81.28
2023-01-18T01:33:55.631Z,90.70
2023-01-18T01:36:28.774Z,87.35
2023-01-18T01:39:01.042Z,85.65
2023-01-18T01:41:34.790Z,105.03
2023-01-18T01:44:20.353Z,105.35
2023-01-18T01:47:23.765Z,91.15
2023-01-18T01:50:02.695Z,88.30
2023-01-18T01:52:37.570Z,75.72
2023-01-18T01:55:21.582Z,84.55
2023-01-18T01:57:56.594Z,83.97
2023-01-18T02:00:28.781Z,77.32
2023-01-18T02:03:06.145Z,77.75
2023-01-18T02:05:44.096Z,68.22
2023-01-18T02:08:22.765Z,74.88
2023-01-18T02:10:54.871Z,75.32
2023-01-18T02:13:27.211Z,81.40
2023-01-18T02:16:19.300Z,71.60
2023-01-18T02:19:08.830Z,69.43
2023-01-18T02:21:47.523Z,61.42
2023-01-18T02:24:37.939Z,71.00
2023-01-18T02:27:25.945Z,57.78
2023-01-18T02:30:05.418Z,60.95
2023-01-18T02:32:56.358Z,59.75
2023-01-18T02:35:52.690Z,64.82
2023-01-18T02:38:41.562Z,62.55
2023-01-18T02:42:06.221Z,61.90
2023-01-18T02:45:04.957Z,58.30
2023-01-18T02:47:37.863Z,59.05
2023-01-18T02:50:10.737Z,52.60
2023-01-18T02:52:49.973Z,58.38
2023-01-18T02:55:39.281Z,50.30
2023-01-18T02:58:24.532Z,58.15
2023-01-18T03:01:12.327Z,59.08
2023-01-18T03:03:48.017Z,61.20
2023-01-18T03:06:21.889Z,58.15
2023-01-18T03:08:55.573Z,70.07
2023-01-18T03:11:40.290Z,64.82
2023-01-18T03:14:36.903Z,62.92
2023-01-18T03:17:21.307Z,56.97
2023-01-18T03:20:08.784Z,59.35
2023-01-18T03:23:24.950Z,52.85
2023-01-18T03:25:58.102Z,50.50
2023-01-18T03:28:53.751Z,58.80
2023-01-18T03:31:59.603Z,55.00
2023-01-18T03:34:38.843Z,50.10
2023-01-18T03:37:16.820Z,53.63
2023-01-18T03:39:57.387Z,58.60
2023-01-18T03:42:50.672Z,49.75
2023-01-18T03:45:31.010Z,59.70
2023-01-18T03:48:03.685Z,54.05
2023-01-18T03:50:54.105Z,55.08
2023-01-18T03:53:39.456Z,54.53
2023-01-18T03:56:23.176Z,53.13
2023-01-18T03:58:57.908Z,53.50
2023-01-18T04:01:29.973Z,48.83
2023-01-18T04:04:02.142Z,50.53
2023-01-18T04:06:34.339Z,56.40
2023-01-18T04:09:06.796Z,52.25
2023-01-18T04:11:38.824Z,51.08
2023-01-18T04:14:10.792Z,56.45
2023-01-18T04:16:42.743Z,46.53
2023-01-18T04:19:14.688Z,49.75
2023-01-18T04:21:46.699Z,48.75
2023-01-18T04:24:18.955Z,46.88
2023-01-18T04:26:50.994Z,52.08
2023-01-18T04:29:23.086Z,47.95
2023-01-18T04:31:55.479Z,46.90
2023-01-18T04:34:27.388Z,41.67
2023-01-18T04:36:59.471Z,44.67
2023-01-18T04:39:31.408Z,41.30
2023-01-18T04:42:03.397Z,38.47
2023-01-18T04:44:35.356Z,38.15
2023-01-18T04:47:07.261Z,39.35
2023-01-18T04:49:39.197Z,46.38
2023-01-18T04:52:11.172Z,41.65
2023-01-18T04:54:44.068Z,39.33
2023-01-18T04:57:16.118Z,34.30
2023-01-18T04:59:48.131Z,44.95
2023-01-18T05:02:20.266Z,38.05
2023-01-18T05:04:52.307Z,33.40
2023-01-18T05:07:27.968Z,33.67
2023-01-18T05:10:01.256Z,29.10
2023-01-18T05:12:33.256Z,31.17
2023-01-18T05:15:06.268Z,25.60
2023-01-18T05:17:38.196Z,28.30
2023-01-18T05:20:11.935Z,28.88
2023-01-18T05:22:44.170Z,25.92
2023-01-18T05:25:16.077Z,24.42
2023-01-18T05:27:48.013Z,28.35
2023-01-18T05:30:19.985Z,22.83
2023-01-18T05:32:51.971Z,25.38
2023-01-18T05:35:23.831Z,25.17
2023-01-18T05:37:55.844Z,26.75
2023-01-18T05:40:27.954Z,27.80
2023-01-18T05:43:00.328Z,26.40
2023-01-18T05:45:32.380Z,24.92
2023-01-18T05:48:04.658Z,24.08
2023-01-18T05:50:39.572Z,25.27
2023-01-18T05:53:12.203Z,24.17
2023-01-18T05:55:45.050Z,21.73
2023-01-18T05:58:16.962Z,26.38
2023-01-18T06:00:49.145Z,23.90
2023-01-18T06:03:21.955Z,22.73
2023-01-18T06:05:53.974Z,24.95
2023-01-18T06:08:26.176Z,23.88
2023-01-18T06:10:59.561Z,23.88
2023-01-18T06:13:32.194Z,22.40
2023-01-18T06:16:04.423Z,20.67
2023-01-18T06:18:37.387Z,21.83
2023-01-18T06:21:11.135Z,17.77
2023-01-18T06:23:43.034Z,16.70
2023-01-18T06:26:15.375Z,20.90
2023-01-18T06:28:47.339Z,19.13
2023-01-18T06:31:19.252Z,17.10
2023-01-18T06:33:51.238Z,17.17
2023-01-18T06:36:23.249Z,17.70
2023-01-18T06:38:55.389Z,17.23
2023-01-18T06:41:27.369Z,18.02
2023-01-18T06:43:59.323Z,16.45
2023-01-18T06:46:31.444Z,15.23
2023-01-18T06:49:03.458Z,15.52
2023-01-18T06:51:35.583Z,16.15
2023-01-18T06:54:07.756Z,15.18
2023-01-18T06:56:40.307Z,15.95
2023-01-18T06:59:12.448Z,15.75
2023-01-18T07:01:44.564Z,15.05
2023-01-18T07:04:16.660Z,15.75
2023-01-18T07:06:48.729Z,14.43
2023-01-18T07:09:20.666Z,12.77
2023-01-18T07:11:52.606Z,13.90
2023-01-18T07:14:24.576Z,11.70
2023-01-18T07:16:56.637Z,17.45
2023-01-18T07:19:28.695Z,12.90
2023-01-18T07:22:01.911Z,13.73
2023-01-18T07:24:33.888Z,12.65
2023-01-18T07:27:05.755Z,10.48
2023-01-18T07:29:37.722Z,11.25
2023-01-18T07:32:09.725Z,8.57
2023-01-18T07:34:41.734Z,11.32
2023-01-18T07:37:14.768Z,10.77
2023-01-18T07:39:46.688Z,9.82
2023-01-18T07:42:19.698Z,10.48
2023-01-18T07:44:51.551Z,12.98
2023-01-18T07:47:23.530Z,10.00
2023-01-18T07:49:55.400Z,11.13
2023-01-18T07:52:27.435Z,13.65
2023-01-18T07:54:59.354Z,10.50
2023-01-18T07:57:31.459Z,8.55
2023-01-18T08:00:04.676Z,9.35
2023-01-18T08:02:36.677Z,8.23
2023-01-18T08:05:10.812Z,7.35
2023-01-18T08:07:43.243Z,7.70
2023-01-18T08:10:15.850Z,7.88
2023-01-18T08:12:48.028Z,8.52
2023-01-18T08:15:19.948Z,7.97
2023-01-18T08:17:51.902Z,10.88
2023-01-18T08:20:24.067Z,7.88
2023-01-18T08:22:58.063Z,7.53
2023-01-18T08:25:33.635Z,6.68
2023-01-18T08:28:06.465Z,8.07
2023-01-18T08:30:41.394Z,7.28
2023-01-18T08:33:13.985Z,9.68
2023-01-18T08:35:48.206Z,11.25
2023-01-18T08:38:20.147Z,6.80
2023-01-18T08:40:52.087Z,8.10
2023-01-18T08:43:24.595Z,7.05
2023-01-18T08:45:56.545Z,7.38
2023-01-18T08:48:28.522Z,7.93
2023-01-18T08:51:02.699Z,5.15
2023-01-18T08:53:34.664Z,6.18
2023-01-18T08:56:07.106Z,7.10
2023-01-18T08:58:39.127Z,5.90
2023-01-18T09:01:11.571Z,6.80
2023-01-18T09:03:43.716Z,6.15
2023-01-18T09:06:17.100Z,7.82
2023-01-18T09:08:49.394Z,6.75
2023-01-18T09:11:21.364Z,7.32
2023-01-18T09:14:02.642Z,8.65
2023-01-18T09:16:34.599Z,6.10
2023-01-18T09:19:06.777Z,5.20
2023-01-18T09:21:38.866Z,6.30
2023-01-18T09:24:10.814Z,5.78
2023-01-18T09:26:45.091Z,6.93
2023-01-18T09:29:17.223Z,6.43
2023-01-18T09:31:49.684Z,5.38
2023-01-18T09:34:22.236Z,7.30
2023-01-18T09:36:54.276Z,7.30
2023-01-18T09:39:26.405Z,7.35
2023-01-18T09:42:01.775Z,6.68
2023-01-18T09:44:41.017Z,6.00
2023-01-18T09:47:24.659Z,7.85
2023-01-18T09:49:58.798Z,8.30
2023-01-18T09:52:33.744Z,7.10
2023-01-18T09:55:05.641Z,8.60
2023-01-18T09:57:52.588Z,8.20
2023-01-18T10:00:27.745Z,9.80
2023-01-18T10:03:15.548Z,14.80
2023-01-18T10:06:08.755Z,15.20
2023-01-18T10:09:04.693Z,14.38
2023-01-18T10:11:45.042Z,15.45
2023-01-18T10:15:10.718Z,14.50
2023-01-18T10:17:43.925Z,17.30
2023-01-18T10:20:47.695Z,16.83
2023-01-18T10:23:44.646Z,20.50
2023-01-18T10:26:38.882Z,12.45
2023-01-18T10:29:35.473Z,15.07
2023-01-18T10:32:18.088Z,16.25
2023-01-18T10:34:52.200Z,22.35
2023-01-18T10:37:40.525Z,21.65
2023-01-18T10:40:15.026Z,20.50
2023-01-18T10:42:57.003Z,26.02
2023-01-18T10:45:32.615Z,19.98
2023-01-18T10:48:28.462Z,14.77
2023-01-18T10:51:09.170Z,14.13
2023-01-18T10:53:41.754Z,21.13
2023-01-18T10:56:18.245Z,13.38
2023-01-18T10:59:01.442Z,19.80
2023-01-18T11:01:36.755Z,12.95
2023-01-18T11:04:23.130Z,12.00
2023-01-18T11:07:01.468Z,14.00
2023-01-18T11:09:36.559Z,14.32
2023-01-18T11:12:41.529Z,18.77
2023-01-18T11:15:16.528Z,17.40
2023-01-18T11:18:11.721Z,19.52
2023-01-18T11:20:49.016Z,26.25
2023-01-18T11:23:29.974Z,15.82
2023-01-18T11:26:05.950Z,25.83
2023-01-18T11:28:59.974Z,18.20
2023-01-18T11:31:46.131Z,40.45
2023-01-18T11:34:32.003Z,36.65
2023-01-18T11:37:18.715Z,41.15
2023-01-18T11:39:50.598Z,46.28
2023-01-18T11:42:30.668Z,50.53
2023-01-18T11:45:26.052Z,42.08
2023-01-18T11:48:14.044Z,48.28
2023-01-18T11:50:55.371Z,46.22
2023-01-18T11:53:57.028Z,21.90
2023-01-18T11:56:41.109Z,24.65
2023-01-18T11:59:26.495Z,22.33
2023-01-18T12:02:07.433Z,17.05
2023-01-18T12:04:54.616Z,14.30
2023-01-18T12:07:55.855Z,17.95
2023-01-18T12:10:38.491Z,25.65
2023-01-18T12:13:48.129Z,19.92
2023-01-18T12:16:23.961Z,13.63
2023-01-18T12:19:29.874Z,22.92
2023-01-18T12:22:09.550Z,21.48
2023-01-18T12:25:10.837Z,18.17
2023-01-18T12:28:07.793Z,18.83
2023-01-18T12:30:39.776Z,17.10
2023-01-18T12:33:43.520Z,20.10
2023-01-18T12:36:58.692Z,18.92
2023-01-18T12:40:01.540Z,18.48
2023-01-18T12:42:40.799Z,170.95
2023-01-18T12:45:42.780Z,179.80
2023-01-18T12:48:30.346Z,307.10
2023-01-18T12:51:12.135Z,32.95
2023-01-18T12:53:53.785Z,31.98
2023-01-18T12:56:39.616Z,58.47
2023-01-18T12:59:29.064Z,25.50
2023-01-18T13:02:13.098Z,79.68
2023-01-18T13:05:05.269Z,37.85
2023-01-18T13:07:55.620Z,24.25
2023-01-18T13:10:29.178Z,28.30
2023-01-18T13:13:03.900Z,20.83
2023-01-18T13:15:48.551Z,19.83
2023-01-18T13:18:33.495Z,20.55
2023-01-18T13:21:31.464Z,20.35
2023-01-18T13:24:09.424Z,30.02
2023-01-18T13:26:42.039Z,55.63
2023-01-18T13:29:26.577Z,49.85
2023-01-18T13:31:58.802Z,61.53
2023-01-18T13:34:32.952Z,57.35
2023-01-18T13:37:14.909Z,49.70
2023-01-18T13:39:48.555Z,43.63
2023-01-18T13:42:23.229Z,54.78
2023-01-18T13:45:18.170Z,50.17
2023-01-18T13:48:18.410Z,42.45
2023-01-18T13:50:52.604Z,40.90
2023-01-18T13:53:25.918Z,46.10
2023-01-18T13:56:00.813Z,42.50
2023-01-18T13:58:34.978Z,34.33
2023-01-18T14:01:19.898Z,24.17
2023-01-18T14:03:53.469Z,21.88
2023-01-18T14:06:30.891Z,27.13
2023-01-18T14:09:14.902Z,31.98
2023-01-18T14:11:55.894Z,27.70
2023-01-18T14:14:35.132Z,25.30
2023-01-18T14:17:08.301Z,30.50
2023-01-18T14:19:49.254Z,32.45
2023-01-18T14:22:52.243Z,24.33
2023-01-18T14:25:39.385Z,31.27
2023-01-18T14:28:20.291Z,27.33
2023-01-18T14:30:58.897Z,30.63
2023-01-18T14:33:38.536Z,33.03
2023-01-18T14:36:24.254Z,63.83
2023-01-18T14:39:17.984Z,25.23
2023-01-18T14:41:55.692Z,35.08
2023-01-18T14:44:56.433Z,38.35
2023-01-18T14:47:32.883Z,31.80
2023-01-18T14:50:12.092Z,27.25
2023-01-18T14:52:43.962Z,33.08
2023-01-18T14:55:31.810Z,28.42
2023-01-18T14:58:17.054Z,33.92
2023-01-18T15:00:52.246Z,32.88
2023-01-18T15:03:27.675Z,32.83
2023-01-18T15:06:06.484Z,42.92
2023-01-18T15:08:40.834Z,35.45
2023-01-18T15:11:14.060Z,37.20
2023-01-18T15:13:50.602Z,37.13
2023-01-18T15:16:27.287Z,34.80
2023-01-18T15:18:59.397Z,47.13
2023-01-18T15:21:35.603Z,39.63
2023-01-18T15:24:10.557Z,36.97
2023-01-18T15:26:50.764Z,69.63
2023-01-18T15:29:26.236Z,31.85
2023-01-18T15:32:03.514Z,24.35
2023-01-18T15:34:37.649Z,44.55
2023-01-18T15:37:15.814Z,27.90
2023-01-18T15:39:58.513Z,30.88
2023-01-18T15:42:43.290Z,29.35
2023-01-18T15:45:31.914Z,59.35
2023-01-18T15:48:18.640Z,40.70
2023-01-18T15:50:57.486Z,26.52
2023-01-18T15:53:32.810Z,24.05
2023-01-18T15:56:14.926Z,52.72
2023-01-18T15:58:50.460Z,39.47
2023-01-18T16:01:32.055Z,52.42
2023-01-18T16:04:20.198Z,54.45
2023-01-18T16:06:52.198Z,31.73
2023-01-18T16:09:24.639Z,34.90
2023-01-18T16:12:00.652Z,29.15
2023-01-18T16:14:38.734Z,39.13
2023-01-18T16:17:10.605Z,35.05
2023-01-18T16:19:45.470Z,34.92
2023-01-18T16:22:38.871Z,54.75
2023-01-18T16:25:21.274Z,49.38
2023-01-18T16:27:55.719Z,35.92
2023-01-18T16:30:39.867Z,35.60
2023-01-18T16:33:18.965Z,60.47
2023-01-18T16:35:51.198Z,36.10
2023-01-18T16:38:24.179Z,38.47
2023-01-18T16:40:59.022Z,48.17
2023-01-18T16:43:34.338Z,46.13
2023-01-18T16:46:06.625Z,42.78
2023-01-18T16:48:38.651Z,48.75
2023-01-18T16:51:14.548Z,46.05
2023-01-18T16:53:47.472Z,59.45
2023-01-18T16:56:19.689Z,42.22
2023-01-18T16:58:51.829Z,33.95
2023-01-18T17:01:24.491Z,38.15
2023-01-18T17:03:56.446Z,44.05
2023-01-18T17:06:29.723Z,49.13
2023-01-18T17:09:01.675Z,49.58
2023-01-18T17:11:33.594Z,64.15
2023-01-18T17:14:05.568Z,70.88
2023-01-18T17:16:37.526Z,39.10
2023-01-18T17:19:20.816Z,40.63
2023-01-18T17:21:52.803Z,33.75
2023-01-18T17:24:25.761Z,38.03
2023-01-18T17:26:57.756Z,43.17
2023-01-18T17:29:29.965Z,38.97
2023-01-18T17:32:01.933Z,61.10
2023-01-18T17:34:33.876Z,50.08
2023-01-18T17:37:05.803Z,52.47
2023-01-18T17:39:49.944Z,45.72
2023-01-18T17:42:30.554Z,45.47
2023-01-18T17:45:03.500Z,34.42
2023-01-18T17:47:36.028Z,39.17
2023-01-18T17:50:11.372Z,45.78
2023-01-18T17:52:43.992Z,43.80
2023-01-18T17:55:17.875Z,41.65
2023-01-18T17:57:52.588Z,49.42
2023-01-18T18:00:26.289Z,41.70
2023-01-18T18:03:00.398Z,35.88
2023-01-18T18:05:33.022Z,32.92
2023-01-18T18:08:05.216Z,31.20
2023-01-18T18:10:37.207Z,31.95
2023-01-18T18:13:09.189Z,31.42
2023-01-18T18:15:46.194Z,37.80
2023-01-18T18:18:23.040Z,43.45
2023-01-18T18:21:06.424Z,41.03
2023-01-18T18:23:38.575Z,80.53
2023-01-18T18:26:10.523Z,86.15
2023-01-18T18:28:42.447Z,61.58
2023-01-18T18:31:16.476Z,48.28
2023-01-18T18:33:48.476Z,49.10
2023-01-18T18:36:21.655Z,39.70
2023-01-18T18:38:53.740Z,36.70
2023-01-18T18:41:25.692Z,36.13
2023-01-18T18:44:00.584Z,32.15
2023-01-18T18:46:32.609Z,33.42
2023-01-18T18:49:05.960Z,38.15
2023-01-18T18:51:37.927Z,36.70
2023-01-18T18:54:13.012Z,41.13
2023-01-18T18:56:45.010Z,41.03
2023-01-18T18:59:17.052Z,71.18
2023-01-18T19:01:55.163Z,44.65
2023-01-18T19:04:27.138Z,37.10
2023-01-18T19:06:59.164Z,45.83
2023-01-18T19:09:32.360Z,42.78
2023-01-18T19:12:04.496Z,38.22
2023-01-18T19:14:36.364Z,39.13
2023-01-18T19:17:10.152Z,43.63
2023-01-18T19:19:42.614Z,37.92
2023-01-18T19:22:14.839Z,37.97
2023-01-18T19:24:48.005Z,38.63
2023-01-18T19:27:21.436Z,39.13
2023-01-18T19:29:53.588Z,40.55
2023-01-18T19:32:25.910Z,44.20
2023-01-18T19:34:57.911Z,41.72
2023-01-18T19:37:29.906Z,48.60
2023-01-18T19:40:01.833Z,52.47
2023-01-18T19:42:33.775Z,47.13
2023-01-18T19:45:08.222Z,46.30
2023-01-18T19:47:42.153Z,60.60
2023-01-18T19:50:14.574Z,53.38
2023-01-18T19:52:46.654Z,56.42
2023-01-18T19:55:18.952Z,52.22
2023-01-18T19:57:52.654Z,50.80
2023-01-18T20:00:24.727Z,47.85
2023-01-18T20:02:56.696Z,51.85
2023-01-18T20:05:28.797Z,75.03
2023-01-18T20:08:00.795Z,241.15
2023-01-18T20:10:32.776Z,257.98
2023-01-18T20:13:05.005Z,134.38
2023-01-18T20:15:41.255Z,192.88
2023-01-18T20:18:13.978Z,237.68
2023-01-18T20:20:46.029Z,110.03
2023-01-18T20:23:17.975Z,102.95
2023-01-18T20:25:53.849Z,71.18
2023-01-18T20:28:26.385Z,53.42
2023-01-18T20:30:59.907Z,61.65
2023-01-18T20:33:33.407Z,50.10
2023-01-18T20:36:06.632Z,41.70
2023-01-18T20:38:38.531Z,44.03
2023-01-18T20:41:11.145Z,47.83
2023-01-18T20:43:43.102Z,47.50
2023-01-18T20:46:15.043Z,45.97
2023-01-18T20:48:46.931Z,62.83
2023-01-18T20:51:19.065Z,62.17
2023-01-18T20:53:51.123Z,51.08
2023-01-18T20:56:29.297Z,58.13
2023-01-18T20:59:01.633Z,46.42
2023-01-18T21:01:33.810Z,48.17
2023-01-18T21:04:06.112Z,48.22
2023-01-18T21:06:38.108Z,46.75
2023-01-18T21:09:10.140Z,46.65
2023-01-18T21:11:42.073Z,38.83
2023-01-18T21:14:14.363Z,45.13
2023-01-18T21:16:46.839Z,50.80
2023-01-18T21:19:19.212Z,46.30
2023-01-18T21:21:51.323Z,58.65
2023-01-18T21:24:23.383Z,55.35
2023-01-18T21:26:55.313Z,52.72
2023-01-18T21:29:27.601Z,50.70
2023-01-18T21:31:59.814Z,45.20
2023-01-18T21:34:31.998Z,44.67
2023-01-18T21:37:04.093Z,45.38
2023-01-18T21:39:36.746Z,46.45
2023-01-18T21:42:29.381Z,56.30
2023-01-18T21:45:20.087Z,51.90
2023-01-18T21:47:52.112Z,57.03
2023-01-18T21:50:42.651Z,52.22
2023-01-18T21:53:34.102Z,41.88
2023-01-18T21:56:06.438Z,45.75
2023-01-18T21:58:53.807Z,47.50
2023-01-18T22:01:34.332Z,42.20
2023-01-18T22:04:27.594Z,43.45
2023-01-18T22:07:00.116Z,41.33
2023-01-18T22:09:32.070Z,51.03
2023-01-18T22:12:04.269Z,58.33
2023-01-18T22:14:36.215Z,55.95
2023-01-18T22:17:08.895Z,55.28
2023-01-18T22:19:44.170Z,55.80
2023-01-18T22:22:16.192Z,50.25
2023-01-18T22:24:48.114Z,55.63
2023-01-18T22:27:20.215Z,55.15
2023-01-18T22:29:52.139Z,50.15
2023-01-18T22:32:24.175Z,72.20
2023-01-18T22:34:56.511Z,54.00
2023-01-18T22:37:28.488Z,54.05
2023-01-18T22:40:00.675Z,87.80
2023-01-18T22:42:35.675Z,77.28
2023-01-18T22:45:08.208Z,65.10
2023-01-18T22:47:40.136Z,55.08
2023-01-18T22:50:12.389Z,79.65
2023-01-18T22:52:44.489Z,68.28
2023-01-18T22:55:17.026Z,61.15
2023-01-18T22:57:49.030Z,53.88
2023-01-18T23:00:20.912Z,58.97
2023-01-18T23:02:53.070Z,76.88
2023-01-18T23:05:25.013Z,75.53
2023-01-18T23:07:57.541Z,90.65
2023-01-18T23:10:29.824Z,83.10
2023-01-18T23:13:01.939Z,66.65
2023-01-18T23:15:52.412Z,51.55
2023-01-18T23:18:24.369Z,52.35
2023-01-18T23:21:00.629Z,51.65
2023-01-18T23:23:32.747Z,61.97
2023-01-18T23:26:04.895Z,61.90
2023-01-18T23:28:42.720Z,61.63
2023-01-18T23:31:17.361Z,54.75
2023-01-18T23:33:49.302Z,61.67
2023-01-18T23:36:21.216Z,57.17
2023-01-18T23:39:12.252Z,62.90
2023-01-18T23:42:02.766Z,52.63
2023-01-18T23:44:53.435Z,52.88
2023-01-18T23:47:44.124Z,53.70
2023-01-18T23:50:34.706Z,53.15
2023-01-18T23:53:29.206Z,50.53
2023-01-18T23:56:01.394Z,53.97
2023-01-18T23:58:33.378Z,51.35
